Time;durP1;ratioP1;P1;durP2;ratioP2;P2;SDS_P1;SDS_P2;PMS_P1;PMS_P2;Temp;Humidity;BMP_temperature;BMP_pressure;BME280_temperature;BME280_humidity;BME280_pressure;Samples;Min_cycle;Max_cycle;Signal;HPM_P1;HPM_P2
2021/08/30 08:50:32;;;;;;;24.77;14.45;;;19.60;99.90;;;;;;11920514;28;20053;-51
2021/08/30 08:56:25;;;;;;;19.45;12.40;;;20.50;99.90;;;;;;11928551;28;20049;-51
2021/08/30 09:02:14;;;;;;;20.20;12.27;;;21.10;99.90;;;;;;11886583;28;20522;-49
2021/08/30 09:08:04;;;;;;;23.42;12.65;;;21.50;99.90;;;;;;11910625;28;20060;-53
2021/08/30 09:13:52;;;;;;;18.00;11.18;;;21.60;99.90;;;;;;11914066;28;20131;-53
2021/08/30 09:19:41;;;;;;;18.73;12.20;;;21.70;99.90;;;;;;11868163;28;20050;-50
2021/08/30 09:25:28;;;;;;;15.95;10.20;;;21.80;99.90;;;;;;11885539;28;20049;-54
2021/08/30 09:31:15;;;;;;;16.33;10.48;;;21.90;99.90;;;;;;11879409;28;20537;-55
2021/08/30 09:37:05;;;;;;;17.63;10.32;;;22.00;99.90;;;;;;11864114;28;20057;-51
2021/08/30 09:42:57;;;;;;;15.88;11.10;;;22.00;99.90;;;;;;11873842;28;20061;-54
2021/08/30 09:48:44;;;;;;;15.90;10.13;;;22.10;99.90;;;;;;11875750;28;20092;-54
2021/08/30 09:54:32;;;;;;;14.57;9.60;;;22.20;99.90;;;;;;11854806;28;20058;-55
2021/08/30 10:00:20;;;;;;;15.73;9.68;;;22.40;99.90;;;;;;11853498;28;20085;-52
2021/08/30 10:06:08;;;;;;;16.05;9.70;;;22.40;99.90;;;;;;11876857;28;20474;-52
2021/08/30 10:11:56;;;;;;;17.65;9.80;;;22.40;99.90;;;;;;11845799;28;20050;-51
2021/08/30 10:17:47;;;;;;;14.65;9.32;;;22.30;99.90;;;;;;11810177;28;20401;-49
2021/08/30 10:23:45;;;;;;;13.60;10.38;;;22.50;99.90;;;;;;11881478;28;20057;-54
2021/08/30 10:29:35;;;;;;;13.43;8.20;;;22.40;99.90;;;;;;11896978;28;20152;-54
2021/08/30 10:35:24;;;;;;;13.77;9.05;;;22.20;99.90;;;;;;11854391;28;20392;-54
2021/08/30 10:41:17;;;;;;;15.15;8.38;;;22.10;99.90;;;;;;11886889;28;20054;-49
2021/08/30 10:47:13;;;;;;;11.05;7.70;;;22.00;99.90;;;;;;11852018;28;20061;-54
2021/08/30 10:53:07;;;;;;;12.23;7.55;;;22.20;99.90;;;;;;11884282;28;20081;-55
2021/08/30 10:58:57;;;;;;;13.65;7.43;;;22.20;99.60;;;;;;11875760;28;20680;-55
2021/08/30 11:04:52;;;;;;;47.83;29.77;;;22.30;99.40;;;;;;11878447;28;20481;-53
2021/08/30 11:10:39;;;;;;;12.10;8.02;;;22.50;99.10;;;;;;11897554;28;20069;-56
2021/08/30 11:16:27;;;;;;;14.77;7.97;;;22.50;98.50;;;;;;11901796;28;20046;-56
2021/08/30 11:22:16;;;;;;;13.85;8.27;;;22.60;99.20;;;;;;11906323;28;20068;-55
2021/08/30 11:28:14;;;;;;;11.88;7.68;;;22.40;98.40;;;;;;11893122;28;20053;-56
2021/08/30 11:34:01;;;;;;;13.93;7.43;;;22.50;98.50;;;;;;11895707;28;20053;-60
2021/08/30 11:45:57;;;;;;;13.73;8.27;;;22.50;97.10;;;;;;11916812;28;20038;-57
2021/08/30 11:51:47;;;;;;;10.52;7.78;;;22.60;98.40;;;;;;11917600;28;20091;-57
2021/08/30 11:57:44;;;;;;;14.38;7.50;;;22.90;96.50;;;;;;11926695;28;20034;-56
2021/08/30 12:03:41;;;;;;;13.18;8.05;;;22.70;96.50;;;;;;11921194;28;20188;-58
2021/08/30 12:09:44;;;;;;;13.35;8.10;;;22.60;97.30;;;;;;11918002;28;20045;-52
2021/08/30 12:15:33;;;;;;;14.17;7.87;;;22.60;97.10;;;;;;11925278;28;20045;-53
2021/08/30 12:21:31;;;;;;;11.90;8.20;;;22.80;97.20;;;;;;11901944;28;20473;-55
2021/08/30 12:27:21;;;;;;;14.85;8.23;;;23.10;96.40;;;;;;11873271;28;20061;-61
2021/08/30 12:33:12;;;;;;;11.30;8.13;;;23.00;96.30;;;;;;11873056;28;20061;-60
2021/08/30 12:38:59;;;;;;;11.07;7.25;;;22.90;96.60;;;;;;11886782;28;20065;-54
2021/08/30 12:44:45;;;;;;;10.05;7.80;;;23.30;96.60;;;;;;11853825;28;20510;-54
2021/08/30 12:50:37;;;;;;;11.57;8.00;;;23.50;96.20;;;;;;11874628;28;20497;-57
2021/08/30 12:56:24;;;;;;;12.85;8.43;;;23.40;95.70;;;;;;11862659;28;20046;-55
2021/08/30 13:02:11;;;;;;;13.13;8.93;;;23.30;94.80;;;;;;11873660;28;20050;-56
2021/08/30 13:07:59;;;;;;;13.27;9.35;;;23.40;94.90;;;;;;11892257;28;20053;-57
2021/08/30 13:13:58;;;;;;;14.82;9.60;;;23.30;94.10;;;;;;11919275;28;20046;-57
2021/08/30 13:19:45;;;;;;;12.88;8.63;;;23.20;94.30;;;;;;11919376;28;20053;-56
2021/08/30 13:25:34;;;;;;;14.38;8.63;;;23.70;95.00;;;;;;11918924;28;20050;-54
2021/08/30 13:31:21;;;;;;;10.02;7.63;;;24.40;93.50;;;;;;11902655;28;20601;-55
2021/08/30 13:37:08;;;;;;;15.07;8.45;;;24.60;92.70;;;;;;11908678;28;20045;-58
2021/08/30 13:42:57;;;;;;;13.00;7.55;;;24.80;92.00;;;;;;11885886;28;20058;-58
2021/08/30 13:48:44;;;;;;;11.15;8.13;;;24.90;92.10;;;;;;11893138;28;20425;-57
2021/08/30 13:54:32;;;;;;;11.55;8.45;;;24.60;90.80;;;;;;11864525;28;20047;-55
2021/08/30 14:00:21;;;;;;;13.73;8.35;;;24.50;91.30;;;;;;11891224;28;20526;-54
2021/08/30 14:06:08;;;;;;;19.88;9.30;;;24.30;91.30;;;;;;11914740;28;20042;-57
2021/08/30 14:11:56;;;;;;;13.38;8.23;;;24.00;91.50;;;;;;11888744;28;20050;-57
2021/08/30 14:23:50;;;;;;;10.95;7.13;;;24.00;91.90;;;;;;11902868;28;20492;-58
2021/08/30 14:29:37;;;;;;;13.63;8.10;;;24.70;91.80;;;;;;11907311;28;20555;-56
2021/08/30 14:35:25;;;;;;;13.85;7.88;;;24.90;89.70;;;;;;11916371;28;20426;-55
2021/08/30 14:47:13;;;;;;;12.07;7.50;;;24.50;89.30;;;;;;11907669;28;20038;-54
2021/08/30 14:59:43;;;;;;;8.55;7.32;;;24.80;89.00;;;;;;11922065;28;20038;-56
2021/08/30 15:05:30;;;;;;;12.65;7.80;;;25.00;86.90;;;;;;11925440;28;20053;-56
2021/08/30 15:11:17;;;;;;;10.23;7.13;;;24.60;89.40;;;;;;11923318;28;20068;-55
2021/08/30 15:17:06;;;;;;;11.38;7.32;;;24.30;90.60;;;;;;11923001;28;20048;-57
2021/08/30 15:22:56;;;;;;;10.05;6.75;;;24.60;91.10;;;;;;11923540;28;20046;-55
2021/08/30 15:28:43;;;;;;;10.18;6.78;;;25.10;89.30;;;;;;11922919;28;20426;-56
2021/08/30 15:34:31;;;;;;;10.50;7.05;;;25.20;88.70;;;;;;11906898;28;20054;-55
2021/08/30 15:40:18;;;;;;;10.35;6.97;;;25.00;86.00;;;;;;11889068;28;20053;-54
2021/08/30 15:46:05;;;;;;;9.63;6.78;;;25.00;87.50;;;;;;11859892;28;20802;-56
2021/08/30 15:51:53;;;;;;;11.25;6.55;;;24.80;88.80;;;;;;11858513;28;20058;-55
2021/08/30 15:57:40;;;;;;;11.93;7.55;;;25.10;88.50;;;;;;11864292;28;21448;-54
2021/08/30 16:03:28;;;;;;;11.45;7.13;;;25.40;86.10;;;;;;11855259;28;20517;-54
2021/08/30 16:09:17;;;;;;;10.85;7.00;;;25.60;85.40;;;;;;11865774;28;20049;-54
2021/08/30 16:15:04;;;;;;;11.40;7.50;;;26.00;84.70;;;;;;11860658;28;20064;-56
2021/08/30 16:20:51;;;;;;;9.02;7.13;;;26.20;83.40;;;;;;11846827;28;20058;-56
2021/08/30 16:26:39;;;;;;;9.25;6.57;;;26.20;80.40;;;;;;11878594;28;20050;-53
2021/08/30 16:32:27;;;;;;;50.40;37.83;;;26.80;79.50;;;;;;11896426;28;20418;-54
2021/08/30 16:38:14;;;;;;;10.70;7.57;;;28.40;73.50;;;;;;11889416;28;20434;-64
2021/08/30 16:44:02;;;;;;;9.75;8.13;;;28.50;72.70;;;;;;11882151;28;20088;-56
2021/08/30 16:49:49;;;;;;;35.25;28.17;;;28.10;73.90;;;;;;11844045;28;20037;-59
2021/08/30 16:55:36;;;;;;;20.73;11.88;;;28.50;74.20;;;;;;11868779;28;20111;-57
2021/08/30 17:01:25;;;;;;;15.98;9.75;;;28.10;72.50;;;;;;11881326;28;20049;-55
2021/08/30 17:07:11;;;;;;;15.35;9.82;;;27.40;75.60;;;;;;11857132;28;20050;-58
2021/08/30 17:12:58;;;;;;;21.27;16.85;;;28.10;73.90;;;;;;11879191;28;20050;-58
2021/08/30 17:18:47;;;;;;;22.33;11.75;;;28.80;72.70;;;;;;11893833;28;20061;-58
2021/08/30 17:24:33;;;;;;;116.88;86.63;;;29.00;70.80;;;;;;11862215;28;20548;-56
2021/08/30 17:30:21;;;;;;;30.55;24.20;;;27.50;74.90;;;;;;11882240;28;20046;-57
2021/08/30 17:36:09;;;;;;;16.40;12.52;;;26.40;79.40;;;;;;11860486;28;20038;-56
2021/08/30 17:41:56;;;;;;;19.02;12.30;;;25.60;81.40;;;;;;11896968;28;20069;-56
2021/08/30 17:47:43;;;;;;;17.98;13.50;;;25.10;84.20;;;;;;11902915;28;20076;-54
2021/08/30 17:53:32;;;;;;;27.90;21.58;;;24.60;86.30;;;;;;11898136;28;20648;-55
2021/08/30 17:59:19;;;;;;;20.95;15.02;;;24.30;88.20;;;;;;11854057;28;20046;-55
2021/08/30 18:05:07;;;;;;;18.83;13.75;;;23.60;90.60;;;;;;11918632;28;20058;-56
2021/08/30 18:10:55;;;;;;;29.00;18.33;;;23.50;91.10;;;;;;11922675;28;20794;-56
2021/08/30 18:16:42;;;;;;;26.13;16.90;;;23.30;91.70;;;;;;11907854;28;20502;-56
2021/08/30 18:22:29;;;;;;;24.23;15.25;;;23.00;92.30;;;;;;11889872;28;20046;-57
2021/08/30 18:28:18;;;;;;;27.33;17.67;;;22.80;92.90;;;;;;11916869;28;20050;-56
2021/08/30 18:34:05;;;;;;;27.83;16.33;;;22.70;93.20;;;;;;11924997;28;20093;-56
2021/08/30 18:39:52;;;;;;;26.77;16.45;;;22.70;93.40;;;;;;11888058;28;20038;-54
2021/08/30 18:45:40;;;;;;;34.05;23.55;;;22.50;93.80;;;;;;11890174;28;20052;-54
2021/08/30 18:52:10;;;;;;;31.77;17.45;;;22.40;94.30;;;;;;11884388;28;20053;-56
2021/08/30 18:57:57;;;;;;;39.40;21.52;;;22.40;94.40;;;;;;11923350;28;20046;-57
2021/08/30 19:03:45;;;;;;;43.03;28.30;;;22.40;95.00;;;;;;11923358;28;20046;-54
2021/08/30 19:09:32;;;;;;;116.55;64.50;;;22.40;95.00;;;;;;11923360;28;20090;-59
2021/08/30 19:15:19;;;;;;;71.20;38.13;;;22.40;95.40;;;;;;11923696;28;20057;-57
2021/08/30 19:21:07;;;;;;;47.30;25.23;;;22.30;96.20;;;;;;11923102;28;20050;-55
2021/08/30 19:26:54;;;;;;;70.05;38.55;;;22.20;96.30;;;;;;11921806;28;20502;-56
2021/08/30 19:32:41;;;;;;;25.20;15.55;;;22.40;96.80;;;;;;11922181;28;20046;-55
2021/08/30 19:38:30;;;;;;;28.85;16.65;;;22.30;96.80;;;;;;11923800;28;20053;-55
2021/08/30 19:44:16;;;;;;;24.98;14.73;;;22.10;97.60;;;;;;11903182;28;20038;-66
2021/08/30 19:50:07;;;;;;;28.92;17.10;;;22.10;97.70;;;;;;11895362;28;20513;-51
2021/08/30 19:55:55;;;;;;;24.88;15.32;;;22.20;97.70;;;;;;11882162;28;22305;-56
2021/08/30 20:01:42;;;;;;;28.25;15.88;;;22.00;98.20;;;;;;11898205;28;20042;-55
2021/08/30 20:07:29;;;;;;;31.73;16.10;;;22.00;98.40;;;;;;11888526;28;20049;-55
2021/08/30 20:13:18;;;;;;;23.58;14.73;;;22.00;98.70;;;;;;11918562;28;20448;-57
2021/08/30 20:19:04;;;;;;;29.85;15.00;;;21.80;99.30;;;;;;11917905;28;20065;-56
2021/08/30 20:24:51;;;;;;;34.92;15.93;;;21.80;99.40;;;;;;11890360;28;20057;-53
2021/08/30 20:30:40;;;;;;;29.67;15.40;;;21.60;99.90;;;;;;11892162;28;20046;-52
2021/08/30 20:36:28;;;;;;;30.05;15.07;;;21.60;99.90;;;;;;11886478;28;20679;-54
2021/08/30 20:42:16;;;;;;;25.42;14.52;;;21.70;99.90;;;;;;11880567;28;20053;-57
2021/08/30 20:48:05;;;;;;;30.65;14.75;;;21.50;99.90;;;;;;11877066;28;20054;-52
2021/08/30 20:53:51;;;;;;;25.92;13.88;;;21.60;99.90;;;;;;11892038;28;20057;-57
2021/08/30 20:59:40;;;;;;;29.23;14.43;;;21.60;99.90;;;;;;11882530;28;20046;-58
2021/08/30 21:05:28;;;;;;;26.30;13.30;;;21.50;99.90;;;;;;11911065;28;20477;-61
2021/08/30 21:11:15;;;;;;;28.40;13.55;;;21.40;99.90;;;;;;11865469;28;20050;-58
2021/08/30 21:17:04;;;;;;;26.88;13.57;;;21.40;99.90;;;;;;11885182;28;20059;-59
2021/08/30 21:22:52;;;;;;;29.75;12.43;;;21.30;99.90;;;;;;11882741;28;20047;-58
2021/08/30 21:28:39;;;;;;;30.00;12.27;;;21.20;99.90;;;;;;11841001;28;20050;-55
2021/08/30 21:34:26;;;;;;;27.13;12.07;;;21.10;99.90;;;;;;11857923;28;20058;-53
2021/08/30 21:40:14;;;;;;;23.67;11.10;;;21.30;99.90;;;;;;11840668;28;20065;-65
2021/08/30 21:46:01;;;;;;;26.23;11.48;;;21.40;99.90;;;;;;11831670;28;20073;-55
2021/08/30 21:51:48;;;;;;;30.90;11.30;;;21.20;99.90;;;;;;11863641;28;20064;-58
